Time;durP1;ratioP1;P1;durP2;ratioP2;P2;SDS_P1;SDS_P2;PMS_P1;PMS_P2;Temp;Humidity;BMP_temperature;BMP_pressure;BME280_temperature;BME280_humidity;BME280_pressure;Samples;Min_cycle;Max_cycle;Signal;HPM_P1;HPM_P2
2022/12/21 00:02:03;;;;;;;75.00;52.85;;;16.20;66.00;;;;;;4933077;28;86078;-48
2022/12/21 00:04:29;;;;;;;75.53;53.10;;;16.10;65.90;;;;;;4930158;28;85118;-49
2022/12/21 00:06:54;;;;;;;75.88;53.40;;;16.10;65.90;;;;;;4935063;28;85681;-51
2022/12/21 00:09:20;;;;;;;75.43;53.25;;;16.10;65.80;;;;;;4935088;28;87995;-48
2022/12/21 00:11:46;;;;;;;76.32;52.97;;;16.10;65.90;;;;;;4924012;28;86018;-53
2022/12/21 00:14:11;;;;;;;74.53;52.67;;;16.10;65.90;;;;;;4925070;28;85150;-48
2022/12/21 00:16:38;;;;;;;74.22;52.78;;;16.10;65.90;;;;;;4929891;28;86108;-48
2022/12/21 00:19:04;;;;;;;76.32;53.05;;;16.10;65.90;;;;;;4930510;28;86246;-49
2022/12/21 00:21:36;;;;;;;73.28;52.63;;;16.10;65.90;;;;;;4931872;28;86522;-52
2022/12/21 00:24:02;;;;;;;75.35;53.30;;;16.00;65.90;;;;;;4934863;28;86187;-52
2022/12/21 00:26:31;;;;;;;76.35;52.63;;;16.00;66.00;;;;;;4933792;28;86609;-48
2022/12/21 00:28:58;;;;;;;74.15;52.95;;;16.00;66.00;;;;;;4922077;28;86423;-50
2022/12/21 00:31:27;;;;;;;74.72;52.88;;;16.00;65.90;;;;;;4933752;28;86533;-50
2022/12/21 00:33:53;;;;;;;73.38;52.53;;;16.00;66.00;;;;;;4941537;28;85758;-50
2022/12/21 00:36:20;;;;;;;74.10;52.70;;;16.00;66.00;;;;;;4940261;28;86322;-48
2022/12/21 00:38:49;;;;;;;73.72;52.13;;;16.00;66.00;;;;;;4928105;28;86838;-51
2022/12/21 00:41:18;;;;;;;74.93;52.83;;;16.00;66.10;;;;;;4924564;28;85665;-48
2022/12/21 00:43:44;;;;;;;74.32;52.80;;;16.00;66.20;;;;;;4931208;28;87497;-48
2022/12/21 00:46:19;;;;;;;74.35;53.22;;;16.00;66.10;;;;;;4937892;28;86641;-52
2022/12/21 00:48:45;;;;;;;75.22;53.28;;;15.90;66.10;;;;;;4926699;28;85525;-50
2022/12/21 00:51:16;;;;;;;73.63;53.03;;;15.90;66.00;;;;;;4929152;28;86462;-48
2022/12/21 00:53:42;;;;;;;74.25;52.75;;;15.90;66.00;;;;;;4931586;28;85376;-49
2022/12/21 00:56:09;;;;;;;74.60;52.53;;;15.90;66.10;;;;;;4935508;28;92857;-51
2022/12/21 00:58:36;;;;;;;74.05;52.70;;;15.90;66.10;;;;;;4925612;28;88179;-50
2022/12/21 01:01:17;;;;;;;74.63;52.75;;;15.90;66.00;;;;;;4930295;28;85815;-52
2022/12/21 01:03:43;;;;;;;74.32;52.83;;;15.90;66.10;;;;;;4931194;28;90599;-50
2022/12/21 01:06:17;;;;;;;74.85;52.75;;;15.90;66.00;;;;;;4928069;28;87113;-51
2022/12/21 01:08:43;;;;;;;73.70;52.60;;;15.90;65.90;;;;;;4932458;28;85975;-50
2022/12/21 01:11:11;;;;;;;74.32;52.88;;;15.90;66.00;;;;;;4919167;28;90385;-49
2022/12/21 01:13:37;;;;;;;75.15;52.55;;;15.90;66.10;;;;;;4927280;28;89937;-49
2022/12/21 01:16:05;;;;;;;74.82;53.22;;;15.90;66.10;;;;;;4927674;28;85709;-49
2022/12/21 01:18:31;;;;;;;72.72;52.22;;;15.80;66.00;;;;;;4935409;28;85730;-53
2022/12/21 01:20:56;;;;;;;73.05;52.20;;;15.90;66.10;;;;;;4928327;28;86379;-52
2022/12/21 01:23:23;;;;;;;74.05;52.90;;;15.80;66.00;;;;;;4929356;28;85885;-52
2022/12/21 01:25:50;;;;;;;73.32;52.03;;;15.80;66.00;;;;;;4929665;28;86072;-50
2022/12/21 01:28:16;;;;;;;73.65;52.58;;;15.80;66.10;;;;;;4927893;28;85203;-50
2022/12/21 01:30:42;;;;;;;74.25;52.38;;;15.80;66.10;;;;;;4938598;28;85667;-50
2022/12/21 01:33:18;;;;;;;74.55;53.05;;;15.80;66.20;;;;;;4933579;28;88597;-49
2022/12/21 01:35:45;;;;;;;72.28;52.33;;;15.80;66.20;;;;;;4928263;28;86295;-50
2022/12/21 01:38:12;;;;;;;73.45;52.28;;;15.80;66.10;;;;;;4934515;28;85989;-49
2022/12/21 01:40:38;;;;;;;73.80;52.22;;;15.70;66.10;;;;;;4929960;28;85719;-50
2022/12/21 01:43:44;;;;;;;73.00;52.92;;;15.80;66.10;;;;;;4931439;28;85010;-48
2022/12/21 01:46:13;;;;;;;73.97;52.42;;;15.70;66.00;;;;;;4926908;28;88146;-47
2022/12/21 01:48:44;;;;;;;72.80;52.45;;;15.70;66.00;;;;;;4930119;28;86217;-47
2022/12/21 01:51:11;;;;;;;72.65;52.20;;;15.70;66.10;;;;;;4937760;28;86764;-48
2022/12/21 01:53:42;;;;;;;73.78;51.92;;;15.70;66.00;;;;;;4936587;28;85326;-51
2022/12/21 01:56:10;;;;;;;72.73;51.83;;;15.70;66.00;;;;;;4928059;28;85939;-50
2022/12/21 01:58:38;;;;;;;74.18;52.45;;;15.70;66.10;;;;;;4934131;28;86173;-50
2022/12/21 02:01:05;;;;;;;74.20;52.55;;;15.70;66.10;;;;;;4935826;28;85414;-48
2022/12/21 02:03:35;;;;;;;73.53;52.33;;;15.70;66.20;;;;;;4929373;28;85349;-51
2022/12/21 02:06:07;;;;;;;73.90;52.22;;;15.70;66.10;;;;;;4925348;28;85791;-50
2022/12/21 02:08:34;;;;;;;73.45;52.35;;;15.60;66.10;;;;;;4927979;28;88164;-48
2022/12/21 02:11:00;;;;;;;72.00;51.67;;;15.70;66.20;;;;;;4923399;28;86843;-51
2022/12/21 02:13:26;;;;;;;73.65;52.50;;;15.60;66.10;;;;;;4927481;28;85739;-47
2022/12/21 02:16:18;;;;;;;72.55;51.92;;;15.60;66.10;;;;;;4927817;28;86491;-49
2022/12/21 02:19:32;;;;;;;72.38;51.85;;;15.70;66.10;;;;;;4936742;28;85929;-50
2022/12/21 02:22:52;;;;;;;73.53;51.55;;;15.60;66.10;;;;;;4929086;28;88929;-49
2022/12/21 02:25:38;;;;;;;71.93;51.53;;;15.60;66.20;;;;;;4926246;28;87353;-49
2022/12/21 02:28:19;;;;;;;72.20;51.70;;;15.60;66.10;;;;;;4936651;28;85447;-50
2022/12/21 02:30:51;;;;;;;73.65;52.40;;;15.60;66.10;;;;;;4928646;28;85877;-53
2022/12/21 02:33:31;;;;;;;72.82;51.90;;;15.60;66.10;;;;;;4931768;28;85086;-51
2022/12/21 02:36:45;;;;;;;72.00;51.70;;;15.50;66.20;;;;;;4928819;28;85353;-47
2022/12/21 02:39:41;;;;;;;72.28;51.85;;;15.50;66.10;;;;;;4936443;28;87203;-49
2022/12/21 02:45:47;;;;;;;71.93;52.00;;;15.50;66.10;;;;;;4928983;28;85631;-52
2022/12/21 02:48:16;;;;;;;72.03;51.80;;;15.60;66.20;;;;;;4918710;28;87347;-48
2022/12/21 02:50:48;;;;;;;71.60;52.17;;;15.50;66.10;;;;;;4920176;28;86439;-48
2022/12/21 02:53:22;;;;;;;72.13;51.85;;;15.50;66.10;;;;;;4931485;28;87005;-49
2022/12/21 02:55:47;;;;;;;72.43;51.97;;;15.50;66.20;;;;;;4934268;28;85947;-48
2022/12/21 02:58:17;;;;;;;72.82;52.42;;;15.50;66.20;;;;;;4922364;28;85103;-48
2022/12/21 03:01:05;;;;;;;72.68;52.20;;;15.50;66.30;;;;;;4923874;28;85872;-49
2022/12/21 03:03:51;;;;;;;74.53;52.47;;;15.50;66.30;;;;;;4918175;28;87546;-48
2022/12/21 03:06:39;;;;;;;73.50;52.97;;;15.50;66.30;;;;;;4929203;28;86088;-52
2022/12/21 03:09:28;;;;;;;72.38;51.78;;;15.50;66.20;;;;;;4915650;28;86000;-49
2022/12/21 03:12:03;;;;;;;73.32;52.47;;;15.50;66.20;;;;;;4917777;28;86666;-48
2022/12/21 03:14:55;;;;;;;72.97;52.58;;;15.50;66.20;;;;;;4929254;28;87007;-52
2022/12/21 03:17:59;;;;;;;72.68;51.95;;;15.50;66.30;;;;;;4931692;28;86626;-48
2022/12/21 03:20:46;;;;;;;73.53;52.55;;;15.50;66.20;;;;;;4927157;28;85378;-47
2022/12/21 03:23:21;;;;;;;72.63;52.75;;;15.40;66.20;;;;;;4933173;28;86052;-51
2022/12/21 03:25:59;;;;;;;72.80;52.38;;;15.40;66.30;;;;;;4932360;28;85637;-51
2022/12/21 03:28:29;;;;;;;72.63;52.35;;;15.40;66.20;;;;;;4929566;28;85723;-52
2022/12/21 03:31:01;;;;;;;73.65;52.88;;;15.40;66.10;;;;;;4926269;28;85857;-51
2022/12/21 03:33:29;;;;;;;;;;;15.40;66.10;;;;;;4925955;28;85053;-49
2022/12/21 03:36:01;;;;;;;72.20;52.10;;;15.40;66.10;;;;;;4927363;28;85877;-53
2022/12/21 03:38:31;;;;;;;72.75;52.35;;;15.40;66.20;;;;;;4929789;28;86284;-51
2022/12/21 03:41:01;;;;;;;72.17;52.40;;;15.40;66.20;;;;;;4923740;28;85710;-53
2022/12/21 03:43:36;;;;;;;73.15;52.53;;;15.30;66.20;;;;;;4928161;28;86232;-50
2022/12/21 03:46:27;;;;;;;73.05;52.47;;;15.30;66.20;;;;;;4920765;28;85494;-51
2022/12/21 03:48:55;;;;;;;74.78;53.42;;;15.40;66.20;;;;;;4920009;28;86335;-49
2022/12/21 03:51:36;;;;;;;72.10;52.55;;;15.40;66.20;;;;;;4922976;28;86092;-50
2022/12/21 03:54:06;;;;;;;73.20;52.47;;;15.40;66.10;;;;;;4918804;28;85911;-47
2022/12/21 03:56:36;;;;;;;72.60;52.38;;;15.40;66.20;;;;;;4927543;28;85609;-50
2022/12/21 03:59:03;;;;;;;72.60;52.65;;;15.40;66.10;;;;;;4925577;28;86228;-49
2022/12/21 04:01:53;;;;;;;73.63;52.78;;;15.30;66.00;;;;;;4920268;28;88295;-51
2022/12/21 04:04:49;;;;;;;73.97;52.75;;;15.40;66.10;;;;;;4919321;28;86327;-50
2022/12/21 04:07:17;;;;;;;73.13;52.35;;;15.30;66.00;;;;;;4925276;28;89074;-50
2022/12/21 04:09:44;;;;;;;74.45;53.40;;;15.40;66.80;;;;;;4932006;28;85684;-50
2022/12/21 04:14:57;;;;;;;72.82;52.60;;;15.30;66.10;;;;;;4935059;28;85420;-51
2022/12/21 04:17:22;;;;;;;73.63;52.47;;;15.30;66.20;;;;;;4927292;28;85534;-48
2022/12/21 04:19:57;;;;;;;72.68;52.30;;;15.30;66.20;;;;;;4937062;28;86066;-51
2022/12/21 04:28:09;;;;;;;72.88;51.92;;;15.30;66.10;;;;;;4930835;28;90683;-50
2022/12/21 04:30:42;;;;;;;73.40;52.63;;;15.30;66.80;;;;;;4930861;28;86138;-50
2022/12/21 04:33:10;;;;;;;72.15;51.78;;;15.30;66.10;;;;;;4925573;28;86148;-49
2022/12/21 04:35:37;;;;;;;73.40;52.35;;;15.30;66.10;;;;;;4921844;28;87687;-49
2022/12/21 04:38:03;;;;;;;72.90;52.85;;;15.30;66.80;;;;;;4940914;28;86727;-49
2022/12/21 04:40:29;;;;;;;72.07;52.17;;;15.30;66.10;;;;;;4931908;28;85382;-51
2022/12/21 04:42:55;;;;;;;73.18;52.88;;;15.20;66.10;;;;;;4926105;28;86729;-51
2022/12/21 04:45:21;;;;;;;72.85;52.75;;;15.20;66.10;;;;;;4921757;28;85855;-51
2022/12/21 04:47:47;;;;;;;73.70;52.58;;;15.20;66.20;;;;;;4924317;28;85615;-51
2022/12/21 04:50:13;;;;;;;73.40;52.17;;;15.20;66.20;;;;;;4932114;28;90063;-49
2022/12/21 04:52:38;;;;;;;72.20;52.63;;;15.20;66.20;;;;;;4931496;28;86268;-51
2022/12/21 04:55:04;;;;;;;71.85;51.78;;;15.20;66.10;;;;;;4926320;28;89957;-48
2022/12/21 04:57:31;;;;;;;72.93;51.80;;;15.20;66.20;;;;;;4924282;28;85444;-50
2022/12/21 04:59:56;;;;;;;72.28;52.03;;;15.20;66.10;;;;;;4928121;28;86548;-50
2022/12/21 05:02:23;;;;;;;73.63;52.53;;;15.20;66.30;;;;;;4922831;28;86546;-50
2022/12/21 05:04:48;;;;;;;74.03;52.90;;;15.20;66.20;;;;;;4918464;28;86480;-49
2022/12/21 05:07:14;;;;;;;73.25;52.28;;;15.20;66.20;;;;;;4928204;28;87825;-48
2022/12/21 05:09:40;;;;;;;73.10;51.30;;;15.20;66.30;;;;;;4922416;28;85922;-49
2022/12/21 05:12:06;;;;;;;73.85;52.72;;;15.20;66.20;;;;;;4920409;28;86410;-51
2022/12/21 05:14:32;;;;;;;73.90;52.17;;;15.20;66.20;;;;;;4931119;28;85094;-48
2022/12/21 05:16:57;;;;;;;72.40;51.88;;;15.20;66.30;;;;;;4930793;28;91476;-48
2022/12/21 05:19:23;;;;;;;72.88;51.83;;;15.20;67.10;;;;;;4925628;28;85874;-50
2022/12/21 05:21:49;;;;;;;72.47;51.85;;;15.10;66.30;;;;;;4923216;28;88123;-48
2022/12/21 05:24:15;;;;;;;72.07;51.53;;;15.20;66.30;;;;;;4929149;28;85441;-49
2022/12/21 05:26:40;;;;;;;72.38;51.75;;;15.10;66.30;;;;;;4921829;28;87209;-49
2022/12/21 05:29:06;;;;;;;74.10;52.28;;;15.10;66.40;;;;;;4927029;28;86667;-50
2022/12/21 05:31:31;;;;;;;72.15;51.95;;;15.10;66.50;;;;;;4916148;28;87195;-53
2022/12/21 05:33:57;;;;;;;71.57;51.28;;;15.10;66.40;;;;;;4932098;28;85826;-50
2022/12/21 05:36:24;;;;;;;71.43;51.15;;;15.10;66.40;;;;;;4928874;28;86896;-49
2022/12/21 05:38:50;;;;;;;73.88;52.08;;;15.10;66.40;;;;;;4930414;28;86765;-49
2022/12/21 05:41:17;;;;;;;71.10;51.33;;;15.10;66.40;;;;;;4936500;28;86726;-50
2022/12/21 05:43:43;;;;;;;71.00;51.15;;;15.10;66.40;;;;;;4926723;28;86014;-53
2022/12/21 05:46:11;;;;;;;71.43;51.45;;;15.10;66.40;;;;;;4926786;28;86611;-53
2022/12/21 05:48:38;;;;;;;71.88;51.72;;;15.10;66.40;;;;;;4920872;28;86272;-50
2022/12/21 05:51:12;;;;;;;72.15;51.80;;;15.10;66.40;;;;;;4931253;28;90710;-47
2022/12/21 05:53:44;;;;;;;71.72;51.53;;;15.10;66.30;;;;;;4930745;28;85431;-52
2022/12/21 05:56:10;;;;;;;71.10;51.00;;;15.10;66.40;;;;;;4924808;28;91249;-49
2022/12/21 05:58:36;;;;;;;73.10;51.13;;;15.10;66.60;;;;;;4926668;28;85935;-50
2022/12/21 06:01:03;;;;;;;70.93;51.25;;;15.10;66.70;;;;;;4932681;28;86396;-48
2022/12/21 06:03:29;;;;;;;73.05;51.15;;;15.00;66.90;;;;;;4923373;28;85522;-48
2022/12/21 06:06:20;;;;;;;74.22;51.92;;;15.10;67.10;;;;;;4929823;28;90442;-50
2022/12/21 06:08:46;;;;;;;73.63;51.95;;;15.10;66.90;;;;;;4920713;28;85381;-47
2022/12/21 06:11:14;;;;;;;71.38;51.42;;;15.10;67.30;;;;;;4933705;28;85454;-52
2022/12/21 06:13:41;;;;;;;72.70;50.92;;;15.00;67.50;;;;;;4936748;28;85545;-48
2022/12/21 06:16:09;;;;;;;73.00;51.08;;;15.00;67.60;;;;;;4930269;28;90384;-51
2022/12/21 06:18:35;;;;;;;73.25;51.75;;;15.10;67.50;;;;;;4915859;28;89720;-52
2022/12/21 06:21:01;;;;;;;75.22;51.97;;;15.10;67.60;;;;;;4923384;28;86035;-51
2022/12/21 06:23:27;;;;;;;75.55;51.47;;;15.10;68.40;;;;;;4930171;28;85696;-48
2022/12/21 06:26:04;;;;;;;76.53;51.65;;;15.10;68.80;;;;;;4921648;28;85720;-50
2022/12/21 06:28:31;;;;;;;72.50;51.17;;;15.10;69.40;;;;;;4927746;28;88502;-48
2022/12/21 06:31:02;;;;;;;75.13;52.20;;;15.10;69.30;;;;;;4919214;28;92243;-48
2022/12/21 06:33:28;;;;;;;74.65;51.67;;;15.10;69.40;;;;;;4925907;28;85682;-50
2022/12/21 06:35:55;;;;;;;76.47;51.85;;;15.00;69.50;;;;;;4925124;28;86300;-50
2022/12/21 06:38:22;;;;;;;76.28;52.33;;;15.00;69.50;;;;;;4928369;28;90150;-49
2022/12/21 06:40:56;;;;;;;77.30;52.67;;;15.10;69.90;;;;;;4927154;28;85596;-47
2022/12/21 06:43:26;;;;;;;76.32;52.08;;;15.10;69.70;;;;;;4937946;28;85469;-52
2022/12/21 06:46:13;;;;;;;76.95;52.22;;;15.10;69.40;;;;;;4929396;28;86581;-50
2022/12/21 06:48:39;;;;;;;74.65;51.53;;;15.10;69.10;;;;;;4928564;28;85252;-51
2022/12/21 06:51:12;;;;;;;78.90;52.33;;;15.00;69.50;;;;;;4927949;28;86174;-52
2022/12/21 06:53:39;;;;;;;72.45;51.92;;;15.00;69.40;;;;;;4922557;28;88533;-51
2022/12/21 06:56:17;;;;;;;76.72;51.35;;;15.00;69.40;;;;;;4935998;28;90813;-49
2022/12/21 06:58:44;;;;;;;74.13;51.72;;;15.00;69.10;;;;;;4930610;28;86448;-48
2022/12/21 07:01:13;;;;;;;74.32;51.88;;;15.00;69.00;;;;;;4926155;28;86407;-48
2022/12/21 07:03:42;;;;;;;72.18;51.47;;;15.00;69.00;;;;;;4927370;28;86525;-51
2022/12/21 07:06:09;;;;;;;73.35;51.58;;;15.00;68.90;;;;;;4929281;28;85385;-47
2022/12/21 07:08:35;;;;;;;74.40;51.95;;;15.00;68.80;;;;;;4940014;28;85674;-52
2022/12/21 07:11:07;;;;;;;75.22;51.67;;;15.00;68.80;;;;;;4924446;28;86189;-48
2022/12/21 07:13:37;;;;;;;74.13;51.65;;;15.00;68.50;;;;;;4921071;28;85014;-50
2022/12/21 07:16:03;;;;;;;76.13;51.95;;;15.00;68.50;;;;;;4924106;28;85210;-49
2022/12/21 07:18:29;;;;;;;73.82;51.97;;;14.90;68.40;;;;;;4929399;28;86723;-51
2022/12/21 07:20:59;;;;;;;75.78;51.85;;;14.90;68.30;;;;;;4919638;28;86742;-50
2022/12/21 07:23:26;;;;;;;72.47;51.88;;;14.90;68.20;;;;;;4920894;28;85635;-50
2022/12/21 07:25:52;;;;;;;72.88;51.53;;;14.90;68.40;;;;;;4930044;28;86359;-51
2022/12/21 07:28:18;;;;;;;73.88;51.72;;;14.90;68.20;;;;;;4935136;28;85599;-48
2022/12/21 07:30:48;;;;;;;76.28;51.20;;;14.90;68.10;;;;;;4924997;28;86069;-51
2022/12/21 07:33:15;;;;;;;74.13;51.30;;;14.90;68.10;;;;;;4921851;28;86629;-50
2022/12/21 07:35:41;;;;;;;73.00;51.75;;;14.90;68.10;;;;;;4927402;28;86679;-53
2022/12/21 07:38:07;;;;;;;75.25;51.35;;;14.90;68.10;;;;;;4931302;28;87498;-51
2022/12/21 07:40:33;;;;;;;74.18;51.35;;;14.80;68.10;;;;;;4929970;28;85488;-49
2022/12/21 07:42:58;;;;;;;71.15;51.47;;;14.90;68.00;;;;;;4925572;28;85509;-52
2022/12/21 07:45:24;;;;;;;74.65;51.05;;;14.80;68.00;;;;;;4933948;28;86447;-51
2022/12/21 07:47:49;;;;;;;73.25;51.42;;;14.90;68.10;;;;;;4928400;28;85471;-49
2022/12/21 07:50:15;;;;;;;72.00;51.45;;;14.90;67.80;;;;;;4924723;28;85541;-51
2022/12/21 07:52:41;;;;;;;71.20;51.33;;;14.90;67.80;;;;;;4935301;28;86197;-52
2022/12/21 07:55:07;;;;;;;72.35;51.42;;;14.90;67.80;;;;;;4933383;28;84963;-49
2022/12/21 07:57:33;;;;;;;72.63;51.47;;;14.90;67.70;;;;;;4929550;28;86400;-48
2022/12/21 07:59:58;;;;;;;70.28;50.88;;;14.90;67.70;;;;;;4935398;28;86554;-52
2022/12/21 08:02:24;;;;;;;71.80;51.15;;;14.90;67.60;;;;;;4932646;28;85357;-47
2022/12/21 08:04:50;;;;;;;73.03;51.40;;;14.90;67.60;;;;;;4944628;28;85912;-50
2022/12/21 08:07:15;;;;;;;72.53;51.03;;;14.80;67.50;;;;;;4930155;28;85277;-52
2022/12/21 08:09:41;;;;;;;72.60;51.25;;;14.80;67.50;;;;;;4925511;28;86270;-49
2022/12/21 08:12:07;;;;;;;72.25;51.25;;;14.90;67.50;;;;;;4935095;28;86363;-48
2022/12/21 08:14:32;;;;;;;73.68;51.05;;;14.90;67.50;;;;;;4933387;28;85921;-52
2022/12/21 08:16:59;;;;;;;72.82;51.55;;;14.90;67.40;;;;;;4923448;28;87451;-51
2022/12/21 08:19:25;;;;;;;71.70;51.55;;;14.80;67.30;;;;;;4930553;28;87826;-51
2022/12/21 08:21:51;;;;;;;72.03;51.60;;;14.90;67.40;;;;;;4928126;28;86130;-52
2022/12/21 08:24:16;;;;;;;71.10;51.20;;;14.80;67.30;;;;;;4922368;28;88803;-49
2022/12/21 08:26:42;;;;;;;71.50;51.28;;;14.90;67.30;;;;;;4941029;28;85907;-51
2022/12/21 08:29:13;;;;;;;71.38;50.70;;;14.90;67.20;;;;;;4932796;28;85362;-51
2022/12/21 08:31:39;;;;;;;69.82;50.70;;;14.80;67.30;;;;;;4937349;28;85430;-51
2022/12/21 08:34:05;;;;;;;70.53;50.90;;;14.90;67.30;;;;;;4926364;28;86199;-47
2022/12/21 08:36:31;;;;;;;73.28;51.70;;;14.90;67.10;;;;;;4935104;28;85361;-48
2022/12/21 08:38:57;;;;;;;71.80;51.30;;;14.90;67.10;;;;;;4930946;28;85632;-50
2022/12/21 08:41:23;;;;;;;73.72;51.22;;;14.90;67.10;;;;;;4932680;28;86288;-51
2022/12/21 08:43:48;;;;;;;72.45;51.22;;;14.90;67.10;;;;;;4932085;28;85364;-49
2022/12/21 08:46:14;;;;;;;71.78;51.17;;;14.80;67.10;;;;;;4927273;28;85435;-50
2022/12/21 08:48:40;;;;;;;70.95;51.28;;;14.80;67.00;;;;;;4935833;28;88305;-49
2022/12/21 08:51:07;;;;;;;71.50;51.33;;;14.80;67.00;;;;;;4930324;28;85454;-47
2022/12/21 08:53:34;;;;;;;74.63;51.55;;;14.80;67.00;;;;;;4926626;28;86788;-49
2022/12/21 08:56:00;;;;;;;71.00;50.88;;;14.80;66.90;;;;;;4932632;28;85791;-52
2022/12/21 08:58:25;;;;;;;70.05;50.63;;;14.80;67.00;;;;;;4934388;28;85788;-52
2022/12/21 09:00:52;;;;;;;72.70;51.72;;;14.80;67.00;;;;;;4936101;28;87322;-50
2022/12/21 09:03:19;;;;;;;73.30;51.10;;;14.80;66.80;;;;;;4921813;28;90269;-52
2022/12/21 09:05:48;;;;;;;72.13;51.17;;;14.80;66.80;;;;;;4932898;28;87100;-51
2022/12/21 09:08:13;;;;;;;71.18;50.85;;;14.80;66.90;;;;;;4940775;28;87831;-50
2022/12/21 09:10:39;;;;;;;70.93;51.47;;;14.80;66.80;;;;;;4921326;28;85409;-48
2022/12/21 09:13:05;;;;;;;71.93;52.40;;;14.80;66.90;;;;;;4923849;28;87711;-49
2022/12/21 09:15:31;;;;;;;70.60;51.08;;;14.80;66.90;;;;;;4932333;28;85654;-49
2022/12/21 09:17:56;;;;;;;70.72;51.28;;;14.80;66.80;;;;;;4921069;28;88551;-52
2022/12/21 09:20:22;;;;;;;70.97;51.28;;;14.80;66.80;;;;;;4926918;28;88068;-50
2022/12/21 09:22:48;;;;;;;71.65;51.28;;;14.80;66.80;;;;;;4928361;28;91279;-47
2022/12/21 09:25:14;;;;;;;70.43;50.90;;;14.80;66.60;;;;;;4934636;28;85326;-47
2022/12/21 09:27:40;;;;;;;72.32;51.08;;;14.80;66.60;;;;;;4925431;28;88468;-49
2022/12/21 09:30:06;;;;;;;72.55;51.47;;;14.90;66.60;;;;;;4932197;28;85400;-49
2022/12/21 09:32:33;;;;;;;71.63;51.15;;;14.90;66.50;;;;;;4938827;28;85770;-50
2022/12/21 09:34:59;;;;;;;71.32;51.03;;;14.90;66.40;;;;;;4930183;28;90854;-49
2022/12/21 09:37:25;;;;;;;72.88;51.38;;;14.90;66.30;;;;;;4926847;28;85597;-49
2022/12/21 09:39:51;;;;;;;72.07;51.92;;;14.90;66.40;;;;;;4929964;28;91150;-51
2022/12/21 09:42:16;;;;;;;71.78;51.45;;;14.90;66.30;;;;;;4918705;28;91913;-49
2022/12/21 09:44:48;;;;;;;72.30;51.78;;;14.90;66.40;;;;;;4923724;28;95558;-47
2022/12/21 09:47:21;;;;;;;71.40;50.75;;;14.90;66.30;;;;;;4927641;28;86006;-48
2022/12/21 09:50:01;;;;;;;73.50;51.63;;;14.90;66.20;;;;;;4930773;28;86974;-50
2022/12/21 09:52:43;;;;;;;73.85;51.75;;;14.90;66.30;;;;;;4931582;28;86949;-50
2022/12/21 09:55:19;;;;;;;71.05;51.58;;;15.00;67.20;;;;;;4930173;28;87741;-50
2022/12/21 09:57:48;;;;;;;73.35;50.80;;;14.90;66.40;;;;;;4937323;28;85176;-49
2022/12/21 10:00:22;;;;;;;71.18;51.60;;;14.90;66.60;;;;;;4920962;28;87823;-51
2022/12/21 10:03:15;;;;;;;70.00;50.22;;;14.90;66.80;;;;;;4930506;28;88214;-50
2022/12/21 10:05:57;;;;;;;71.15;50.97;;;14.90;66.80;;;;;;4927098;28;85728;-50
2022/12/21 10:08:46;;;;;;;73.78;51.30;;;14.90;66.80;;;;;;4924974;28;88173;-52
2022/12/21 10:11:29;;;;;;;76.75;51.20;;;15.00;66.60;;;;;;4922113;28;85909;-49
2022/12/21 10:14:23;;;;;;;73.22;50.60;;;15.00;66.60;;;;;;4918322;28;86591;-50
2022/12/21 10:17:05;;;;;;;70.93;50.90;;;15.10;66.30;;;;;;4918807;28;86988;-47
2022/12/21 10:19:57;;;;;;;73.70;51.25;;;15.10;66.10;;;;;;4919795;28;85947;-52
2022/12/21 10:22:30;;;;;;;73.55;51.50;;;15.10;66.40;;;;;;4927340;28;85446;-50
2022/12/21 10:25:03;;;;;;;74.97;51.83;;;15.10;66.50;;;;;;4916591;28;86007;-50
2022/12/21 10:27:45;;;;;;;74.65;51.65;;;15.10;66.50;;;;;;4932270;28;85855;-50
2022/12/21 10:30:13;;;;;;;75.80;51.30;;;15.10;66.20;;;;;;4923021;28;86650;-50
2022/12/21 10:32:42;;;;;;;73.30;51.03;;;15.10;66.20;;;;;;4927518;28;87449;-49
2022/12/21 10:35:17;;;;;;;72.82;51.63;;;15.10;66.20;;;;;;4920668;28;85397;-52
2022/12/21 10:37:47;;;;;;;75.60;51.50;;;15.10;66.00;;;;;;4902867;28;88787;-53
2022/12/21 10:40:14;;;;;;;73.43;51.70;;;15.10;66.30;;;;;;4928853;28;85814;-49
2022/12/21 10:42:45;;;;;;;74.43;51.40;;;15.20;67.10;;;;;;4929698;28;85841;-49
2022/12/21 10:45:14;;;;;;;72.78;50.97;;;15.20;67.60;;;;;;4919715;28;86841;-54
2022/12/21 10:47:40;;;;;;;74.90;51.55;;;15.20;67.80;;;;;;4924071;28;86507;-56
2022/12/21 10:50:30;;;;;;;74.50;51.30;;;15.30;67.70;;;;;;4925613;28;85832;-58
2022/12/21 10:52:58;;;;;;;79.35;51.53;;;15.20;67.40;;;;;;4935256;28;85334;-56
2022/12/21 10:55:25;;;;;;;73.85;51.30;;;15.20;67.10;;;;;;4921417;28;92090;-57
2022/12/21 10:57:55;;;;;;;76.25;51.20;;;15.10;66.90;;;;;;4921030;28;86315;-58
2022/12/21 11:00:22;;;;;;;73.47;51.33;;;15.10;67.10;;;;;;4915067;28;86342;-52
2022/12/21 11:02:50;;;;;;;77.43;51.55;;;15.20;67.40;;;;;;4923728;28;87646;-53
2022/12/21 11:05:31;;;;;;;74.70;51.67;;;15.30;67.80;;;;;;4922320;28;87141;-53
2022/12/21 11:08:31;;;;;;;76.30;51.43;;;15.30;68.00;;;;;;4928026;28;87201;-51
2022/12/21 11:11:01;;;;;;;74.43;50.90;;;15.30;68.20;;;;;;4925874;28;90362;-53
2022/12/21 11:13:32;;;;;;;75.30;51.42;;;15.30;68.10;;;;;;4921522;28;87527;-51
2022/12/21 11:15:58;;;;;;;77.47;51.90;;;15.30;68.10;;;;;;4922144;28;87797;-54
2022/12/21 11:18:33;;;;;;;77.70;51.75;;;15.40;68.00;;;;;;4927609;28;88665;-51
2022/12/21 11:21:01;;;;;;;75.35;51.28;;;15.40;67.80;;;;;;4932367;28;85374;-55
2022/12/21 11:23:27;;;;;;;78.55;51.33;;;15.40;67.80;;;;;;4934944;28;86037;-50
2022/12/21 11:25:54;;;;;;;73.72;51.10;;;15.40;67.70;;;;;;4925142;28;86558;-57
2022/12/21 11:28:21;;;;;;;77.03;51.38;;;15.40;67.40;;;;;;4918600;28;88216;-53
2022/12/21 11:30:54;;;;;;;76.72;50.83;;;15.30;67.10;;;;;;4926660;28;87075;-51
2022/12/21 11:33:21;;;;;;;75.43;51.05;;;15.30;67.00;;;;;;4926863;28;85240;-51
2022/12/21 11:36:12;;;;;;;77.03;51.30;;;15.30;66.80;;;;;;4928412;28;87032;-53
2022/12/21 11:38:39;;;;;;;76.10;51.67;;;15.30;66.80;;;;;;4923187;28;85714;-54
2022/12/21 11:41:18;;;;;;;73.60;51.03;;;15.30;67.40;;;;;;4927910;28;85594;-52
2022/12/21 11:43:49;;;;;;;75.05;51.50;;;15.20;66.50;;;;;;4929564;28;86337;-52
2022/12/21 11:46:27;;;;;;;79.43;51.47;;;15.20;66.40;;;;;;4934061;28;86573;-54
2022/12/21 11:49:29;;;;;;;73.85;51.35;;;15.30;66.30;;;;;;4938172;28;85862;-50
2022/12/21 11:52:22;;;;;;;74.22;51.05;;;15.20;66.30;;;;;;4929701;28;85582;-50
2022/12/21 11:55:17;;;;;;;74.30;51.13;;;15.20;66.30;;;;;;4927028;28;85658;-51
2022/12/21 11:57:50;;;;;;;73.20;50.95;;;15.20;66.30;;;;;;4920042;28;86929;-49
2022/12/21 12:00:21;;;;;;;78.20;51.47;;;15.20;66.20;;;;;;4928005;28;86003;-54
2022/12/21 12:02:55;;;;;;;73.10;51.33;;;15.30;66.10;;;;;;4930776;28;86153;-54
2022/12/21 12:05:39;;;;;;;73.35;50.97;;;15.20;66.00;;;;;;4925074;28;86161;-54
2022/12/21 12:08:38;;;;;;;75.75;50.67;;;15.20;66.10;;;;;;4931645;28;85842;-50
2022/12/21 12:11:22;;;;;;;72.97;51.30;;;15.20;66.10;;;;;;4925441;28;86415;-54
2022/12/21 12:13:57;;;;;;;73.25;50.95;;;15.20;66.00;;;;;;4918282;28;86355;-52
2022/12/21 12:16:34;;;;;;;78.13;51.30;;;15.20;66.00;;;;;;4929540;28;85547;-54
2022/12/21 12:19:18;;;;;;;74.20;50.92;;;15.20;66.00;;;;;;4931564;28;87751;-51
2022/12/21 12:22:09;;;;;;;72.97;50.95;;;15.20;65.90;;;;;;4932790;28;91452;-49
2022/12/21 12:24:35;;;;;;;74.80;51.00;;;15.20;65.80;;;;;;4921442;28;86066;-51
2022/12/21 12:27:49;;;;;;;76.55;51.58;;;15.20;65.90;;;;;;4921370;28;91925;-55
2022/12/21 12:30:35;;;;;;;77.25;51.25;;;15.20;66.80;;;;;;4926093;28;86281;-56
2022/12/21 12:33:19;;;;;;;76.07;51.15;;;15.20;66.40;;;;;;4902623;28;87647;-54
2022/12/21 12:35:58;;;;;;;73.80;50.90;;;15.20;66.20;;;;;;4929855;28;91832;-54
2022/12/21 12:38:41;;;;;;;76.43;50.65;;;15.20;66.10;;;;;;4930160;28;87113;-55
2022/12/21 12:41:15;;;;;;;80.10;50.88;;;15.20;66.10;;;;;;4929350;28;85471;-56
2022/12/21 12:44:08;;;;;;;75.35;50.92;;;15.20;66.20;;;;;;4922404;28;85770;-53
2022/12/21 12:46:53;;;;;;;73.07;50.80;;;15.30;66.00;;;;;;4918895;28;85863;-56
2022/12/21 12:49:53;;;;;;;78.72;51.28;;;15.20;65.90;;;;;;4918620;28;87278;-52
2022/12/21 12:52:47;;;;;;;72.18;50.50;;;15.20;66.00;;;;;;4922173;28;87445;-56
2022/12/21 12:55:33;;;;;;;79.63;51.25;;;15.20;65.90;;;;;;4914591;28;87721;-57
2022/12/21 12:58:07;;;;;;;76.93;52.92;;;15.20;66.00;;;;;;4916858;28;87475;-51
2022/12/21 13:00:53;;;;;;;73.70;50.63;;;15.20;66.90;;;;;;4910885;28;85368;-49
2022/12/21 13:03:56;;;;;;;74.88;50.72;;;15.20;67.40;;;;;;4916818;28;88645;-52
2022/12/21 13:07:14;;;;;;;76.88;51.08;;;15.30;67.50;;;;;;4927656;28;85796;-55